Observation data for Haskell on 01/18/2019      Previous  Date  Next       Current Mesonet Observations  Soil Data  Daily Summary Page  Observations in Plain Language
KHA1 180600Z 15007KT 08/05 A3003 RMK A01 T00780045  RH  081%=      5-min Rain = 0
KHA1 180605Z 15006KT 08/04 A3003 RMK A01 T00790044  RH  080%=      5-min Rain = 0
KHA1 180610Z 15005KT 08/04 A3003 RMK A01 T00780044  RH  081%=      5-min Rain = 0
KHA1 180615Z 15005KT 08/04 A3003 RMK A01 T00770044  RH  081%=      5-min Rain = 0
KHA1 180620Z 15004KT 07/04 A3003 RMK A01 T00740043  RH  082%=      5-min Rain = 0
KHA1 180625Z 15004KT 07/04 A3002 RMK A01 T00720042  RH  083%=      5-min Rain = 0
KHA1 180630Z 16005KT 07/04 A3002 RMK A01 T00700041  RH  084%=      5-min Rain = 0
KHA1 180635Z 16005KT 07/04 A3002 RMK A01 T00700042  RH  084%=      5-min Rain = 0
KHA1 180640Z 16005KT 07/04 A3002 RMK A01 T00690042  RH  084%=      5-min Rain = 0
KHA1 180645Z 16005KT 07/04 A3001 RMK A01 T00690042  RH  085%=      5-min Rain = 0
KHA1 180650Z 16005KT 07/04 A3001 RMK A01 T00690042  RH  085%=      5-min Rain = 0
KHA1 180655Z 16004KT 07/04 A3001 RMK A01 T00690042  RH  085%=      5-min Rain = 0
KHA1 180700Z 16005KT 07/04 A3001 RMK A01 T00700042  RH  084%=      5-min Rain = 0
KHA1 180705Z 16006KT 07/04 A3001 RMK A01 T00700043  RH  084%=      5-min Rain = 0
KHA1 180710Z 17006KT 07/04 A3001 RMK A01 T00720043  RH  084%=      5-min Rain = 0
KHA1 180715Z 17006KT 07/04 A30 RMK A01 T00720044  RH  084%=      5-min Rain = 0
KHA1 180720Z 17006G11KT 07/04 A30 RMK A01 T00720044  RH  084%=      5-min Rain = 0
KHA1 180725Z 18006KT 07/04 A30 RMK A01 T00720044  RH  084%=      5-min Rain = 0
KHA1 180730Z 18006KT 07/04 A30 RMK A01 T00720044  RH  084%=      5-min Rain = 0
KHA1 180735Z 18006KT 07/04 A30 RMK A01 T00710044  RH  085%=      5-min Rain = 0
KHA1 180740Z 18006KT 07/04 A2999 RMK A01 T00690043  RH  085%=      5-min Rain = 0
KHA1 180745Z 18006KT 07/04 A2999 RMK A01 T00670043  RH  086%=      5-min Rain = 0
KHA1 180750Z 18006KT 07/04 A2999 RMK A01 T00660042  RH  087%=      5-min Rain = 0
KHA1 180755Z 17007KT 07/04 A2999 RMK A01 T00670043  RH  086%=      5-min Rain = 0
KHA1 180800Z 18007KT 07/04 A2998 RMK A01 T00690043  RH  085%=      5-min Rain = 0
KHA1 180805Z 17008KT 07/04 A2998 RMK A01 T00700043  RH  085%=      5-min Rain = 0
KHA1 180810Z 17008KT 07/04 A2998 RMK A01 T00720044  RH  084%=      5-min Rain = 0
KHA1 180815Z 17008KT 07/04 A2997 RMK A01 T00740044  RH  083%=      5-min Rain = 0
KHA1 180820Z 17008KT 08/04 A2997 RMK A01 T00760044  RH  082%=      5-min Rain = 0
KHA1 180825Z 18008KT 08/05 A2997 RMK A01 T00770045  RH  082%=      5-min Rain = 0
KHA1 180830Z 18008KT 08/05 A2997 RMK A01 T00770045  RH  082%=      5-min Rain = 0
KHA1 180835Z 18009KT 08/05 A2997 RMK A01 T00790046  RH  081%=      5-min Rain = 0
KHA1 180840Z 18008KT 08/05 A2997 RMK A01 T00790045  RH  081%=      5-min Rain = 0
KHA1 180845Z 18009KT 08/05 A2997 RMK A01 T00790045  RH  081%=      5-min Rain = 0
KHA1 180850Z 18009KT 08/05 A2997 RMK A01 T00790045  RH  081%=      5-min Rain = 0
KHA1 180855Z 18009KT 08/05 A2996 RMK A01 T00790045  RH  081%=      5-min Rain = 0
KHA1 180900Z 18009KT 08/05 A2996 RMK A01 T00790045  RH  081%=      5-min Rain = 0
KHA1 180905Z 18008KT 08/05 A2996 RMK A01 T00790045  RH  081%=      5-min Rain = 0
KHA1 180910Z 18008KT 08/05 A2996 RMK A01 T00790045  RH  081%=      5-min Rain = 0
KHA1 180915Z 18008KT 08/05 A2996 RMK A01 T00790045  RH  081%=      5-min Rain = 0
KHA1 180920Z 18008KT 08/05 A2996 RMK A01 T00800045  RH  080%=      5-min Rain = 0
KHA1 180925Z 18007KT 08/05 A2996 RMK A01 T00800045  RH  080%=      5-min Rain = 0
KHA1 180930Z 18008KT 08/05 A2995 RMK A01 T00790045  RH  081%=      5-min Rain = 0
KHA1 180935Z 18008KT 08/05 A2995 RMK A01 T00810045  RH  080%=      5-min Rain = 0
KHA1 180940Z 18007KT 08/05 A2995 RMK A01 T00810045  RH  080%=      5-min Rain = 0
KHA1 180945Z 17007KT 08/05 A2995 RMK A01 T00810045  RH  080%=      5-min Rain = 0
KHA1 180950Z 17007KT 08/05 A2995 RMK A01 T00800045  RH  080%=      5-min Rain = 0
KHA1 180955Z 17008KT 08/05 A2995 RMK A01 T00820046  RH  080%=      5-min Rain = 0
KHA1 181000Z 17008G13KT 08/05 A2995 RMK A01 T00830046  RH  079%=      5-min Rain = 0
KHA1 181005Z 17009KT 08/05 A2994 RMK A01 T00830047  RH  079%=      5-min Rain = 0
KHA1 181010Z 17009KT 09/05 A2994 RMK A01 T00850047  RH  079%=      5-min Rain = 0
KHA1 181015Z 16009G14KT 09/05 A2994 RMK A01 T00870048  RH  078%=      5-min Rain = 0
KHA1 181020Z 16009KT 09/05 A2993 RMK A01 T00880048  RH  078%=      5-min Rain = 0
KHA1 181025Z 16009KT 09/05 A2993 RMK A01 T00880049  RH  078%=      5-min Rain = 0
KHA1 181030Z 16009G14KT 09/05 A2992 RMK A01 T00880049  RH  078%=      5-min Rain = 0
KHA1 181035Z 16009G15KT 09/05 A2992 RMK A01 T00870050  RH  079%=      5-min Rain = 0
KHA1 181040Z 16009G14KT 09/05 A2992 RMK A01 T00870050  RH  079%=      5-min Rain = 0
KHA1 181045Z 17010G15KT 09/05 A2992 RMK A01 T00880050  RH  079%=      5-min Rain = 0
KHA1 181050Z 17010G15KT 09/05 A2991 RMK A01 T00870050  RH  080%=      5-min Rain = 0
KHA1 181055Z 17010G15KT 09/05 A2991 RMK A01 T00870050  RH  080%=      5-min Rain = 0
KHA1 181100Z 17011KT 09/05 A299 RMK A01 T00850050  RH  080%=      5-min Rain = 0
KHA1 181105Z 17011G18KT 08/05 A299 RMK A01 T00840050  RH  081%=      5-min Rain = 0
KHA1 181110Z 17011G16KT 08/05 A2989 RMK A01 T00840050  RH  081%=      5-min Rain = 0
KHA1 181115Z 17011KT 09/05 A2989 RMK A01 T00850050  RH  080%=      5-min Rain = 0
KHA1 181120Z 17011KT 09/05 A2989 RMK A01 T00850050  RH  080%=      5-min Rain = 0
KHA1 181125Z 17011KT 09/05 A2988 RMK A01 T00860051  RH  080%=      5-min Rain = 0
KHA1 181130Z 17010KT 09/05 A2988 RMK A01 T00860051  RH  080%=      5-min Rain = 0
KHA1 181135Z 17011G16KT 09/05 A2987 RMK A01 T00850050  RH  080%=      5-min Rain = 0
KHA1 181140Z 17011KT 08/05 A2987 RMK A01 T00840050  RH  081%=      5-min Rain = 0
KHA1 181145Z 17010KT 08/05 A2987 RMK A01 T00830049  RH  081%=      5-min Rain = 0
KHA1 181150Z 18010KT 08/05 A2987 RMK A01 T00810049  RH  082%=      5-min Rain = 0
KHA1 181155Z 18010KT 08/05 A2987 RMK A01 T00790049  RH  083%=      5-min Rain = 0
KHA1 181200Z 18009KT 08/05 A2987 RMK A01 T00780048  RH  083%=      5-min Rain = 0
KHA1 181205Z 18009KT 08/05 A2987 RMK A01 T00770048  RH  084%=      5-min Rain = 0
KHA1 181210Z 18008KT 08/05 A2987 RMK A01 T00750047  RH  084%=      5-min Rain = 0
KHA1 181215Z 19008KT 07/05 A2987 RMK A01 T00730047  RH  085%=      5-min Rain = 0
KHA1 181220Z 18007KT 07/05 A2987 RMK A01 T00720046  RH  086%=      5-min Rain = 0
KHA1 181225Z 18007KT 07/05 A2987 RMK A01 T00700046  RH  086%=      5-min Rain = 0
KHA1 181230Z 18007KT 07/05 A2986 RMK A01 T00700046  RH  086%=      5-min Rain = 0
KHA1 181235Z 18007KT 07/05 A2986 RMK A01 T00710046  RH  086%=      5-min Rain = 0
KHA1 181240Z 19007KT 07/05 A2986 RMK A01 T00710045  RH  085%=      5-min Rain = 0
KHA1 181245Z 19007KT 07/05 A2986 RMK A01 T00710045  RH  085%=      5-min Rain = 0
KHA1 181250Z 19008KT 07/05 A2986 RMK A01 T00710045  RH  085%=      5-min Rain = 0
KHA1 181255Z 18007KT 07/05 A2986 RMK A01 T00720045  RH  085%=      5-min Rain = 0
KHA1 181300Z 18007KT 07/04 A2986 RMK A01 T00730044  RH  084%=      5-min Rain = 0
KHA1 181305Z 18007KT 07/04 A2985 RMK A01 T00720044  RH  084%=      5-min Rain = 0
KHA1 181310Z 18008KT 07/04 A2985 RMK A01 T00720044  RH  084%=      5-min Rain = 0
KHA1 181315Z 18008KT 07/04 A2985 RMK A01 T00710043  RH  084%=      5-min Rain = 0
KHA1 181320Z 17008KT 07/04 A2985 RMK A01 T00700043  RH  085%=      5-min Rain = 0
KHA1 181325Z 18008KT 07/04 A2985 RMK A01 T00710043  RH  084%=      5-min Rain = 0
KHA1 181330Z 18007KT 07/04 A2985 RMK A01 T00710043  RH  084%=      5-min Rain = 0
KHA1 181335Z 18007KT 07/04 A2984 RMK A01 T00700042  RH  084%=      5-min Rain = 0
KHA1 181340Z 18006KT 07/04 A2984 RMK A01 T00690042  RH  084%=      5-min Rain = 0
KHA1 181345Z 18006KT 07/04 A2984 RMK A01 T00690041  RH  084%=      5-min Rain = 0
KHA1 181350Z 18006KT 07/04 A2984 RMK A01 T00680041  RH  084%=      5-min Rain = 0
KHA1 181355Z 18006KT 07/04 A2984 RMK A01 T00680041  RH  084%=      5-min Rain = 0
KHA1 181400Z 18006KT 07/04 A2984 RMK A01 T00680040  RH  084%=      5-min Rain = 0
KHA1 181405Z 18007KT 07/04 A2984 RMK A01 T00660040  RH  085%=      5-min Rain = 0
KHA1 181410Z 18007KT 07/04 A2984 RMK A01 T00670040  RH  085%=      5-min Rain = 0
KHA1 181415Z 18007KT 07/04 A2984 RMK A01 T00700041  RH  084%=      5-min Rain = 0
KHA1 181420Z 18006KT 07/04 A2983 RMK A01 T00730042  RH  083%=      5-min Rain = 0
KHA1 181425Z 18006KT 08/04 A2983 RMK A01 T00760043  RH  081%=      5-min Rain = 0
KHA1 181430Z 18006KT 08/04 A2983 RMK A01 T00790044  RH  080%=      5-min Rain = 0
KHA1 181435Z 18006KT 08/04 A2983 RMK A01 T00810044  RH  079%=      5-min Rain = 0
KHA1 181440Z 18006KT 08/04 A2982 RMK A01 T00830044  RH  078%=      5-min Rain = 0
KHA1 181445Z 18007KT 08/04 A2982 RMK A01 T00840044  RH  078%=      5-min Rain = 0
KHA1 181450Z 18007KT 09/05 A2982 RMK A01 T00860046  RH  077%=      5-min Rain = 0
KHA1 181455Z 19007KT 09/05 A2982 RMK A01 T00880047  RH  077%=      5-min Rain = 0
KHA1 181500Z 19007KT 09/05 A2981 RMK A01 T00900047  RH  076%=      5-min Rain = 0
KHA1 181505Z 20009KT 09/05 A2982 RMK A01 T00920048  RH  076%=      5-min Rain = 0
KHA1 181510Z 20009KT 09/05 A2982 RMK A01 T00940048  RH  075%=      5-min Rain = 0
KHA1 181515Z 20009KT 09/05 A2982 RMK A01 T00940048  RH  075%=      5-min Rain = 0
KHA1 181520Z 20007KT 10/05 A2982 RMK A01 T00950052  RH  076%=      5-min Rain = 0
KHA1 181525Z 19008KT 10/05 A2981 RMK A01 T00990053  RH  075%=      5-min Rain = 0
KHA1 181530Z 19009KT 10/05 A2981 RMK A01 T01030052  RH  073%=      5-min Rain = 0
KHA1 181535Z 20010KT 11/05 A2981 RMK A01 T01060054  RH  072%=      5-min Rain = 0
KHA1 181540Z 20010KT 11/06 A2981 RMK A01 T01100055  RH  070%=      5-min Rain = 0
KHA1 181545Z 20011KT 11/06 A2981 RMK A01 T01140055  RH  068%=      5-min Rain = 0
KHA1 181550Z 20011KT 12/06 A2981 RMK A01 T01170057  RH  068%=      5-min Rain = 0
KHA1 181555Z 20010KT 12/06 A2981 RMK A01 T01200060  RH  068%=      5-min Rain = 0
KHA1 181600Z 20011G16KT 13/06 A298 RMK A01 T01250063  RH  067%=      5-min Rain = 0
KHA1 181605Z 20011G17KT 13/07 A298 RMK A01 T01320065  RH  065%=      5-min Rain = 0
KHA1 181610Z 20012KT 13/06 A298 RMK A01 T01320062  RH  064%=      5-min Rain = 0
KHA1 181615Z 20012KT 13/06 A298 RMK A01 T01330064  RH  064%=      5-min Rain = 0
KHA1 181620Z 21011KT 14/07 A298 RMK A01 T01390067  RH  064%=      5-min Rain = 0
KHA1 181625Z 21013KT 14/07 A298 RMK A01 T01430067  RH  062%=      5-min Rain = 0
KHA1 181630Z 21013KT 14/07 A298 RMK A01 T01430067  RH  062%=      5-min Rain = 0
KHA1 181635Z 20013KT 15/07 A298 RMK A01 T01470069  RH  061%=      5-min Rain = 0
KHA1 181640Z 21014KT 15/07 A298 RMK A01 T01530071  RH  060%=      5-min Rain = 0
KHA1 181645Z 20013KT 16/08 A298 RMK A01 T01600075  RH  059%=      5-min Rain = 0
KHA1 181650Z 21013KT 16/07 A2979 RMK A01 T01620074  RH  058%=      5-min Rain = 0
KHA1 181655Z 22012G17KT 16/08 A298 RMK A01 T01630075  RH  057%=      5-min Rain = 0
KHA1 181700Z 22014KT 17/08 A298 RMK A01 T01680075  RH  056%=      5-min Rain = 0
KHA1 181705Z 23013KT 17/08 A298 RMK A01 T01730076  RH  055%=      5-min Rain = 0
KHA1 181710Z 22016G21KT 18/07 A2979 RMK A01 T01790074  RH  051%=      5-min Rain = 0
KHA1 181715Z 22016G21KT 18/07 A2978 RMK A01 T01810071  RH  050%=      5-min Rain = 0
KHA1 181720Z 23016G21KT 18/07 A2978 RMK A01 T01790068  RH  049%=      5-min Rain = 0
KHA1 181725Z 22016KT 18/07 A2977 RMK A01 T01830069  RH  048%=      5-min Rain = 0
KHA1 181730Z 23015KT 19/07 A2978 RMK A01 T01870070  RH  048%=      5-min Rain = 0
KHA1 181735Z 22017G23KT 19/07 A2977 RMK A01 T01900069  RH  046%=      5-min Rain = 0
KHA1 181740Z 22016KT 19/07 A2977 RMK A01 T01940072  RH  046%=      5-min Rain = 0
KHA1 181745Z 22016KT 19/07 A2976 RMK A01 T01940072  RH  046%=      5-min Rain = 0
KHA1 181750Z 23015KT 20/07 A2976 RMK A01 T01970073  RH  046%=      5-min Rain = 0
KHA1 181755Z 22014G20KT 20/07 A2975 RMK A01 T02000074  RH  045%=      5-min Rain = 0
KHA1 181800Z 23016KT 20/07 A2975 RMK A01 T02010072  RH  044%=      5-min Rain = 0
KHA1 181805Z 22014KT 20/07 A2974 RMK A01 T02030073  RH  044%=      5-min Rain = 0
KHA1 181810Z 24011KT 21/07 A2974 RMK A01 T02050074  RH  044%=      5-min Rain = 0
KHA1 181815Z 24013KT 21/07 A2973 RMK A01 T02080072  RH  042%=      5-min Rain = 0
KHA1 181820Z 24013G20KT 21/07 A2973 RMK A01 T02130069  RH  040%=      5-min Rain = 0
KHA1 181825Z 24016KT 22/06 A2972 RMK A01 T02180061  RH  037%=      5-min Rain = 0
KHA1 181830Z 24015G21KT 22/06 A2971 RMK A01 T02220059  RH  036%=      5-min Rain = 0
KHA1 181835Z 23018G24KT 22/05 A2971 RMK A01 T02220053  RH  034%=      5-min Rain = 0
KHA1 181840Z 23019G25KT 22/05 A297 RMK A01 T02230050  RH  033%=      5-min Rain = 0
KHA1 181845Z 24017G23KT 22/05 A2969 RMK A01 T02230048  RH  033%=      5-min Rain = 0
KHA1 181850Z 24021G29KT 23/05 A2969 RMK A01 T02260046  RH  032%=      5-min Rain = 0
KHA1 181855Z 25023G29KT 23/04 A2969 RMK A01 T02260044  RH  031%=      5-min Rain = 0
KHA1 181900Z 25021G29KT 23/04 A2968 RMK A01 T02260042  RH  031%=      5-min Rain = 0
KHA1 181905Z 24022G28KT 23/04 A2968 RMK A01 T02270043  RH  031%=      5-min Rain = 0
KHA1 181910Z 25019G25KT 23/05 A2967 RMK A01 T02300046  RH  031%=      5-min Rain = 0
KHA1 181915Z 23018G26KT 23/05 A2966 RMK A01 T02290045  RH  031%=      5-min Rain = 0
KHA1 181920Z 24017KT 23/05 A2966 RMK A01 T02290048  RH  031%=      5-min Rain = 0
KHA1 181925Z 24019G24KT 23/05 A2965 RMK A01 T02330048  RH  031%=      5-min Rain = 0
KHA1 181930Z 23020G26KT 23/05 A2965 RMK A01 T02340050  RH  031%=      5-min Rain = 0
KHA1 181935Z 24019G31KT 23/04 A2965 RMK A01 T02290044  RH  031%=      5-min Rain = 0
KHA1 181940Z 24020KT 23/04 A2964 RMK A01 T02280035  RH  029%=      5-min Rain = 0
KHA1 181945Z 24020G27KT 23/04 A2964 RMK A01 T02300037  RH  029%=      5-min Rain = 0
KHA1 181950Z 24018G24KT 23/04 A2964 RMK A01 T02290038  RH  029%=      5-min Rain = 0
KHA1 181955Z 23017G23KT 23/04 A2963 RMK A01 T02290040  RH  030%=      5-min Rain = 0
KHA1 182000Z 23016G24KT 23/04 A2963 RMK A01 T02270039  RH  030%=      5-min Rain = 0
KHA1 182005Z 24017G22KT 23/04 A2963 RMK A01 T02260035  RH  029%=      5-min Rain = 0
KHA1 182010Z 23016G22KT 23/04 A2962 RMK A01 T02260038  RH  030%=      5-min Rain = 0
KHA1 182015Z 24016G21KT 23/04 A2962 RMK A01 T02250036  RH  030%=      5-min Rain = 0
KHA1 182020Z 23015G21KT 23/04 A2962 RMK A01 T02250037  RH  030%=      5-min Rain = 0
KHA1 182025Z 23014G19KT 23/04 A2962 RMK A01 T02250041  RH  031%=      5-min Rain = 0
KHA1 182030Z 23013KT 23/04 A2961 RMK A01 T02250043  RH  031%=      5-min Rain = 0
KHA1 182035Z 23012G19KT 23/05 A2961 RMK A01 T02260046  RH  032%=      5-min Rain = 0
KHA1 182040Z 23015G20KT 23/04 A296 RMK A01 T02270041  RH  030%=      5-min Rain = 0
KHA1 182045Z 23018G27KT 23/04 A296 RMK A01 T02280038  RH  029%=      5-min Rain = 0
KHA1 182050Z 24018G24KT 23/04 A296 RMK A01 T02290037  RH  029%=      5-min Rain = 0
KHA1 182055Z 24020G25KT 23/04 A296 RMK A01 T02300035  RH  028%=      5-min Rain = 0
KHA1 182100Z 25019G25KT 23/03 A296 RMK A01 T02300034  RH  028%=      5-min Rain = 0
KHA1 182105Z 25018G24KT 23/04 A296 RMK A01 T02300038  RH  029%=      5-min Rain = 0
KHA1 182110Z 24017KT 23/04 A296 RMK A01 T02310037  RH  029%=      5-min Rain = 0
KHA1 182115Z 24018G27KT 23/04 A2959 RMK A01 T02330035  RH  028%=      5-min Rain = 0
KHA1 182120Z 24020G28KT 23/03 A296 RMK A01 T02340029  RH  027%=      5-min Rain = 0
KHA1 182125Z 24020G25KT 24/03 A2959 RMK A01 T02360029  RH  026%=      5-min Rain = 0
KHA1 182130Z 25019G27KT 24/03 A2959 RMK A01 T02360030  RH  026%=      5-min Rain = 0
KHA1 182135Z 24022G29KT 24/03 A296 RMK A01 T02360026  RH  026%=      5-min Rain = 0
KHA1 182140Z 25023KT 24/03 A296 RMK A01 T02350026  RH  026%=      5-min Rain = 0
KHA1 182145Z 25018G24KT 24/03 A296 RMK A01 T02350029  RH  026%=      5-min Rain = 0
KHA1 182150Z 24018G23KT 24/03 A296 RMK A01 T02350032  RH  027%=      5-min Rain = 0
KHA1 182155Z 25019G28KT 23/03 A296 RMK A01 T02340032  RH  027%=      5-min Rain = 0
KHA1 182200Z 25019G26KT 23/03 A296 RMK A01 T02290027  RH  027%=      5-min Rain = 0
KHA1 182205Z 25019G26KT 23/03 A296 RMK A01 T02290028  RH  027%=      5-min Rain = 0
KHA1 182210Z 25017G23KT 23/03 A296 RMK A01 T02270028  RH  028%=      5-min Rain = 0
KHA1 182215Z 25015KT 23/03 A296 RMK A01 T02260030  RH  028%=      5-min Rain = 0
KHA1 182220Z 24017KT 22/03 A296 RMK A01 T02240031  RH  029%=      5-min Rain = 0
KHA1 182225Z 25017G25KT 22/03 A296 RMK A01 T02230031  RH  029%=      5-min Rain = 0
KHA1 182230Z 25016KT 22/03 A296 RMK A01 T02200033  RH  030%=      5-min Rain = 0
KHA1 182235Z 25017KT 22/03 A296 RMK A01 T02200031  RH  029%=      5-min Rain = 0
KHA1 182240Z 24016G21KT 22/03 A296 RMK A01 T02180032  RH  030%=      5-min Rain = 0
KHA1 182245Z 24014KT 22/03 A296 RMK A01 T02160033  RH  031%=      5-min Rain = 0
KHA1 182250Z 24014KT 21/03 A296 RMK A01 T02140034  RH  031%=      5-min Rain = 0
KHA1 182255Z 24014KT 21/03 A296 RMK A01 T02140034  RH  031%=      5-min Rain = 0
KHA1 182300Z 24014KT 21/03 A2961 RMK A01 T02130034  RH  031%=      5-min Rain = 0
KHA1 182305Z 25013KT 21/04 A2961 RMK A01 T02100036  RH  032%=      5-min Rain = 0
KHA1 182310Z 26013KT 21/04 A2961 RMK A01 T02070036  RH  033%=      5-min Rain = 0
KHA1 182315Z 26016G22KT 21/03 A2961 RMK A01 T02070028  RH  031%=      5-min Rain = 0
KHA1 182320Z 26020G28KT 21/02 A2961 RMK A01 T02110016  RH  028%=      5-min Rain = 0
KHA1 182325Z 27019G24KT 21/02 A2961 RMK A01 T02080016  RH  028%=      5-min Rain = 0
KHA1 182330Z 26019KT 21/02 A2961 RMK A01 T02070015  RH  028%=      5-min Rain = 0
KHA1 182335Z 26018G24KT 21/02 A2961 RMK A01 T02060017  RH  029%=      5-min Rain = 0
KHA1 182340Z 26020G25KT 21/02 A2961 RMK A01 T02070016  RH  029%=      5-min Rain = 0
KHA1 182345Z 26020G27KT 21/02 A2961 RMK A01 T02060017  RH  029%=      5-min Rain = 0
KHA1 182350Z 26018G23KT 20/02 A2962 RMK A01 T02040018  RH  030%=      5-min Rain = 0
KHA1 182355Z 26017G22KT 20/02 A2961 RMK A01 T02030018  RH  030%=      5-min Rain = 0
KHA1 190000Z 26015KT 20/02 A2962 RMK A01 T02010020  RH  031%=      5-min Rain = 0
KHA1 190005Z 26013KT 20/02 A2962 RMK A01 T01970022  RH  032%=      5-min Rain = 0
KHA1 190010Z 26013KT 20/02 A2962 RMK A01 T01960023  RH  032%=      5-min Rain = 0
KHA1 190015Z 26014KT 19/03 A2962 RMK A01 T01930025  RH  033%=      5-min Rain = 0
KHA1 190020Z 26014KT 19/03 A2962 RMK A01 T01930026  RH  033%=      5-min Rain = 0
KHA1 190025Z 26017G24KT 20/03 A2962 RMK A01 T01960025  RH  033%=      5-min Rain = 0
KHA1 190030Z 27020G25KT 20/02 A2963 RMK A01 T01990023  RH  032%=      5-min Rain = 0
KHA1 190035Z 27018KT 20/03 A2963 RMK A01 T01970025  RH  032%=      5-min Rain = 0
KHA1 190040Z 27018G23KT 20/03 A2964 RMK A01 T01960026  RH  033%=      5-min Rain = 0
KHA1 190045Z 27023G29KT 20/02 A2963 RMK A01 T01990020  RH  031%=      5-min Rain = 0
KHA1 190050Z 27025G30KT 20/02 A2964 RMK A01 T02000016  RH  030%=      5-min Rain = 0
KHA1 190055Z 26027G35KT 20/01 A2964 RMK A01 T02000014  RH  029%=      5-min Rain = 0
KHA1 190100Z 26025G34KT 20/01 A2965 RMK A01 T01970013  RH  030%=      5-min Rain = 0
KHA1 190105Z 28030G45KT 19/02 A2966 RMK A01 T01880022  RH  033%=      5-min Rain = 0
KHA1 190110Z 27029G42KT 18/03 A2968 RMK A01 T01790030  RH  038%=      5-min Rain = 0
KHA1 190115Z 25028G39KT 18/03 A2966 RMK A01 T01770031  RH  038%=      5-min Rain = 0
KHA1 190120Z 24016G22KT 18/03 A2964 RMK A01 T01750030  RH  038%=      5-min Rain = 0
KHA1 190125Z 24017G30KT 17/03 A2965 RMK A01 T01740029  RH  039%=      5-min Rain = 0
KHA1 190130Z 24014G20KT 17/03 A2965 RMK A01 T01700034  RH  041%=      5-min Rain = 0
KHA1 190135Z 24015KT 17/03 A2966 RMK A01 T01700034  RH  041%=      5-min Rain = 0
KHA1 190140Z 24017KT 17/03 A2966 RMK A01 T01700032  RH  040%=      5-min Rain = 0
KHA1 190145Z 23020G28KT 17/04 A2966 RMK A01 T01690036  RH  042%=      5-min Rain = 0
KHA1 190150Z 23019G26KT 17/04 A2967 RMK A01 T01660039  RH  044%=      5-min Rain = 0
KHA1 190155Z 24019G28KT 17/04 A2967 RMK A01 T01650038  RH  044%=      5-min Rain = 0
KHA1 190200Z 25024G47KT 17/02 A2967 RMK A01 T01730020  RH  037%=      5-min Rain = 0
KHA1 190205Z 26017G29KT 18/M01 A2966 RMK A01 T01811008  RH  028%=      5-min Rain = 0
KHA1 190210Z 24018G25KT 18/M02 A2965 RMK A01 T01831024  RH  025%=      5-min Rain = 0
KHA1 190215Z 24016G21KT 18/M02 A2965 RMK A01 T01801020  RH  026%=      5-min Rain = 0
KHA1 190220Z 24016G22KT 18/M02 A2964 RMK A01 T01771021  RH  026%=      5-min Rain = 0
KHA1 190225Z 24015KT 17/M02 A2965 RMK A01 T01731016  RH  028%=      5-min Rain = 0
KHA1 190230Z 24015KT 17/M01 A2966 RMK A01 T01681014  RH  029%=      5-min Rain = 0
KHA1 190235Z 25015KT 16/M01 A2966 RMK A01 T01631012  RH  030%=      5-min Rain = 0
KHA1 190240Z 25014KT 16/M01 A2967 RMK A01 T01591009  RH  032%=      5-min Rain = 0
KHA1 190245Z 25015KT 16/M01 A2968 RMK A01 T01581009  RH  032%=      5-min Rain = 0
KHA1 190250Z 25014KT 16/M01 A2969 RMK A01 T01571008  RH  033%=      5-min Rain = 0
KHA1 190255Z 25015KT 16/M01 A2969 RMK A01 T01581009  RH  032%=      5-min Rain = 0
KHA1 190300Z 32028G40KT 13/01 A2972 RMK A01 T01280005  RH  045%=      5-min Rain = 0
KHA1 190305Z 34030G35KT 09/02 A2973 RMK A01 T00940015  RH  059%=      5-min Rain = 0
KHA1 190310Z 34028G38KT 09/02 A2974 RMK A01 T00870015  RH  062%=      5-min Rain = 0
KHA1 190315Z 34024G32KT 08/02 A2975 RMK A01 T00840016  RH  063%=      5-min Rain = 0
KHA1 190320Z 34020G26KT 08/02 A2976 RMK A01 T00820017  RH  064%=      5-min Rain = 0
KHA1 190325Z 33025G32KT 08/02 A2976 RMK A01 T00790016  RH  065%=      5-min Rain = 0
KHA1 190330Z 33025G33KT 08/02 A2976 RMK A01 T00770017  RH  067%=      5-min Rain = 0
KHA1 190335Z 34025G32KT 08/02 A2976 RMK A01 T00750017  RH  068%=      5-min Rain = 0
KHA1 190340Z 33026G32KT 07/02 A2976 RMK A01 T00730017  RH  068%=      5-min Rain = 0
KHA1 190345Z 33027G34KT 07/02 A2976 RMK A01 T00710017  RH  069%=      5-min Rain = 0
KHA1 190350Z 33023G31KT 07/02 A2977 RMK A01 T00690017  RH  070%=      5-min Rain = 0
KHA1 190355Z 33023G30KT 07/02 A2978 RMK A01 T00680017  RH  071%=      5-min Rain = 0
KHA1 190400Z 33027G36KT 07/02 A2979 RMK A01 T00670018  RH  072%=      5-min Rain = 0
KHA1 190405Z 33024G32KT 07/02 A2979 RMK A01 T00670018  RH  072%=      5-min Rain = 0
KHA1 190410Z 33024G31KT 07/02 A298 RMK A01 T00680019  RH  072%=      5-min Rain = 0
KHA1 190415Z 33026G33KT 07/02 A2981 RMK A01 T00700020  RH  072%=      5-min Rain = 0
KHA1 190420Z 32029G36KT 07/02 A2981 RMK A01 T00700020  RH  071%=      5-min Rain = 0
KHA1 190425Z 33031G36KT 07/02 A2981 RMK A01 T00700019  RH  071%=      5-min Rain = 0
KHA1 190430Z 33029G37KT 07/02 A2981 RMK A01 T00690019  RH  071%=      5-min Rain = 0
KHA1 190435Z 33028G37KT 07/02 A2982 RMK A01 T00680018  RH  071%=      5-min Rain = 0
KHA1 190440Z 33030G35KT 07/02 A2982 RMK A01 T00680017  RH  071%=      5-min Rain = 0
KHA1 190445Z 34028G37KT 07/02 A2982 RMK A01 T00680017  RH  071%=      5-min Rain = 0
KHA1 190450Z 33025G32KT 07/02 A2984 RMK A01 T00680017  RH  071%=      5-min Rain = 0
KHA1 190455Z 33025G30KT 07/02 A2985 RMK A01 T00680017  RH  071%=      5-min Rain = 0
KHA1 190500Z 33027G34KT 07/02 A2986 RMK A01 T00660015  RH  071%=      5-min Rain = 0
KHA1 190505Z 32025G30KT 07/01 A2987 RMK A01 T00650014  RH  071%=      5-min Rain = 0
KHA1 190510Z 33027G33KT 06/01 A2987 RMK A01 T00630013  RH  071%=      5-min Rain = 0
KHA1 190515Z 33026G33KT 06/01 A2988 RMK A01 T00630012  RH  071%=      5-min Rain = 0
KHA1 190520Z 33027G35KT 06/01 A2989 RMK A01 T00620011  RH  070%=      5-min Rain = 0
KHA1 190525Z 34025G35KT 06/01 A2989 RMK A01 T00620010  RH  070%=      5-min Rain = 0
KHA1 190530Z 34024G29KT 06/01 A299 RMK A01 T00620010  RH  071%=      5-min Rain = 0
KHA1 190535Z 34026G34KT 06/01 A2991 RMK A01 T00620010  RH  070%=      5-min Rain = 0
KHA1 190540Z 33022G31KT 06/01 A2991 RMK A01 T00610010  RH  071%=      5-min Rain = 0
KHA1 190545Z 33027G33KT 06/01 A2991 RMK A01 T00600007  RH  070%=      5-min Rain = 0
KHA1 190550Z 33026G34KT 06/01 A2992 RMK A01 T00590007  RH  070%=      5-min Rain = 0
KHA1 190555Z 34024G31KT 06/01 A2992 RMK A01 T00580006  RH  070%=      5-min Rain = 0

Page generated in 0.0093 seconds.